Time;durP1;ratioP1;P1;durP2;ratioP2;P2;SDS_P1;SDS_P2;PMS_P1;PMS_P2;Temp;Humidity;BMP_temperature;BMP_pressure;BME280_temperature;BME280_humidity;BME280_pressure;Samples;Min_cycle;Max_cycle;Signal;HPM_P1;HPM_P2
2022/11/09 00:01:11;;;;;;;5.78;2.60;;;13.20;99.90;;;;;;5056920;28;20048;-65
2022/11/09 00:03:36;;;;;;;3.55;1.95;;;13.20;99.90;;;;;;5057290;28;20439;-65
2022/11/09 00:06:03;;;;;;;6.68;2.30;;;13.10;99.90;;;;;;5056571;28;20051;-65
2022/11/09 00:08:28;;;;;;;3.38;1.85;;;13.20;99.90;;;;;;5057284;28;20053;-65
2022/11/09 00:10:54;;;;;;;4.47;2.17;;;13.10;99.90;;;;;;5056974;28;20563;-65
2022/11/09 00:13:20;;;;;;;4.25;2.40;;;13.10;99.90;;;;;;5056809;28;20043;-65
2022/11/09 00:15:46;;;;;;;4.32;1.90;;;13.10;99.90;;;;;;5056712;28;20037;-65
2022/11/09 00:18:11;;;;;;;5.00;2.33;;;13.10;99.90;;;;;;5057066;28;20452;-65
2022/11/09 00:20:37;;;;;;;5.65;2.08;;;13.10;99.90;;;;;;5056963;28;20033;-65
2022/11/09 00:23:02;;;;;;;3.95;2.00;;;13.00;99.90;;;;;;5056749;28;20072;-65
2022/11/09 00:25:28;;;;;;;7.97;2.35;;;13.10;99.90;;;;;;5056823;28;20060;-65
2022/11/09 00:27:53;;;;;;;6.10;2.50;;;13.00;99.90;;;;;;5056670;28;20064;-65
2022/11/09 00:30:19;;;;;;;4.50;1.80;;;13.00;99.90;;;;;;5055734;28;20051;-65
2022/11/09 00:32:44;;;;;;;7.93;2.30;;;13.00;99.90;;;;;;5054759;28;20036;-65
2022/11/09 00:35:10;;;;;;;4.72;1.90;;;13.00;99.90;;;;;;5052827;28;20076;-65
2022/11/09 00:37:35;;;;;;;7.88;2.00;;;13.00;99.90;;;;;;5053662;28;20218;-65
2022/11/09 00:40:01;;;;;;;3.70;1.63;;;13.00;99.90;;;;;;5053493;28;20041;-65
2022/11/09 00:42:26;;;;;;;6.20;2.47;;;13.00;99.90;;;;;;5053402;28;20421;-65
2022/11/09 00:44:52;;;;;;;5.50;2.30;;;13.00;99.90;;;;;;5053221;28;20040;-65
2022/11/09 00:47:17;;;;;;;3.40;1.92;;;13.10;99.90;;;;;;5053563;28;20033;-65
2022/11/09 00:49:43;;;;;;;2.47;1.90;;;13.00;99.90;;;;;;5053137;28;20052;-65
2022/11/09 00:52:08;;;;;;;4.80;1.92;;;13.10;99.90;;;;;;5053382;28;20041;-65
2022/11/09 00:54:34;;;;;;;6.25;2.22;;;13.00;99.90;;;;;;5052892;28;20036;-65
2022/11/09 00:56:59;;;;;;;5.32;2.20;;;13.10;99.90;;;;;;5050639;28;20501;-65
2022/11/09 00:59:25;;;;;;;7.13;1.77;;;13.00;99.90;;;;;;5052338;28;20037;-65
2022/11/09 01:01:50;;;;;;;6.72;2.10;;;13.00;99.90;;;;;;5051813;28;20049;-65
2022/11/09 01:04:16;;;;;;;4.03;2.25;;;13.00;99.90;;;;;;5053021;28;20052;-65
2022/11/09 01:06:41;;;;;;;5.90;2.08;;;13.10;99.90;;;;;;5052896;28;20124;-65
2022/11/09 01:09:07;;;;;;;7.72;2.10;;;13.10;99.90;;;;;;5053192;28;20041;-65
2022/11/09 01:11:32;;;;;;;4.97;1.90;;;13.10;99.90;;;;;;5052705;28;20041;-65
2022/11/09 01:13:59;;;;;;;3.35;1.92;;;13.10;99.90;;;;;;5051277;28;20053;-65
2022/11/09 01:16:25;;;;;;;2.55;1.75;;;13.10;99.90;;;;;;5051440;28;20091;-65
2022/11/09 01:18:55;;;;;;;5.55;1.98;;;13.10;99.90;;;;;;5051617;28;20033;-65
2022/11/09 01:21:21;;;;;;;6.28;2.00;;;13.10;99.90;;;;;;5052790;28;20058;-65
2022/11/09 01:23:47;;;;;;;7.53;2.22;;;13.00;99.90;;;;;;5052509;28;20033;-65
2022/11/09 01:26:14;;;;;;;4.72;1.75;;;13.10;99.90;;;;;;5052694;28;20048;-65
2022/11/09 01:28:40;;;;;;;3.35;2.10;;;13.00;99.90;;;;;;5052806;28;20037;-65
2022/11/09 01:31:11;;;;;;;5.72;2.35;;;13.00;99.90;;;;;;5052595;28;20044;-65
2022/11/09 01:33:37;;;;;;;7.17;2.10;;;13.00;99.90;;;;;;5052427;28;20520;-65
2022/11/09 01:36:09;;;;;;;4.50;2.00;;;13.00;99.90;;;;;;5052279;28;20037;-65
2022/11/09 01:38:36;;;;;;;4.85;2.50;;;13.00;99.90;;;;;;5051114;28;20064;-65
2022/11/09 01:41:03;;;;;;;5.90;2.20;;;13.10;99.90;;;;;;5052439;28;20083;-65
2022/11/09 01:43:29;;;;;;;5.68;2.20;;;13.00;99.90;;;;;;5052241;28;20059;-65
2022/11/09 01:46:16;;;;;;;4.38;2.17;;;13.10;99.90;;;;;;5052013;28;20041;-65
2022/11/09 01:48:59;;;;;;;6.35;1.83;;;13.00;99.90;;;;;;5052239;28;20397;-65
2022/11/09 01:51:30;;;;;;;;;;;13.10;99.90;;;;;;5051652;28;20048;-65
2022/11/09 01:54:01;;;;;;;4.60;1.83;;;13.10;99.90;;;;;;5050504;28;20133;-65
2022/11/09 01:56:27;;;;;;;5.00;1.67;;;13.10;99.90;;;;;;5052385;28;20455;-65
2022/11/09 01:58:59;;;;;;;6.38;2.10;;;13.10;99.90;;;;;;5051975;28;20051;-65
2022/11/09 02:01:25;;;;;;;7.07;2.00;;;13.10;99.90;;;;;;5052015;28;20558;-65
2022/11/09 02:04:00;;;;;;;7.10;2.00;;;13.10;99.90;;;;;;5051528;28;20275;-65
2022/11/09 02:06:28;;;;;;;5.72;1.90;;;13.10;99.90;;;;;;5051846;28;20052;-65
2022/11/09 02:08:59;;;;;;;6.97;1.92;;;13.10;99.90;;;;;;5052197;28;20044;-65
2022/11/09 02:11:28;;;;;;;9.02;2.65;;;13.10;99.90;;;;;;5051755;28;20480;-65
2022/11/09 02:13:57;;;;;;;4.72;1.83;;;13.10;99.90;;;;;;5051596;28;20072;-65
2022/11/09 02:16:23;;;;;;;8.30;2.00;;;13.10;99.90;;;;;;5051641;28;20480;-65
2022/11/09 02:18:57;;;;;;;5.65;2.05;;;13.10;99.90;;;;;;5051675;28;20562;-65
2022/11/09 02:21:26;;;;;;;9.65;2.33;;;13.10;99.90;;;;;;5051701;28;20040;-65
2022/11/09 02:23:52;;;;;;;7.97;1.90;;;13.10;99.90;;;;;;5051559;28;20037;-65
2022/11/09 02:26:25;;;;;;;3.30;1.65;;;13.10;99.90;;;;;;5050382;28;20037;-65
2022/11/09 02:28:54;;;;;;;6.70;1.92;;;13.10;99.90;;;;;;5051493;28;20041;-65
2022/11/09 02:31:21;;;;;;;5.68;1.95;;;13.10;99.90;;;;;;5051157;28;20513;-65
2022/11/09 02:33:49;;;;;;;8.38;2.15;;;13.00;99.90;;;;;;5051123;28;20497;-65
2022/11/09 02:36:15;;;;;;;3.85;1.40;;;13.00;99.90;;;;;;5050120;28;20048;-65
2022/11/09 02:38:40;;;;;;;9.38;1.63;;;13.00;99.90;;;;;;5050130;28;20120;-65
2022/11/09 02:41:06;;;;;;;4.45;1.48;;;13.00;99.90;;;;;;5051373;28;20045;-65
2022/11/09 02:43:34;;;;;;;6.55;1.77;;;13.00;99.90;;;;;;5051296;28;20044;-65
2022/11/09 02:46:00;;;;;;;9.75;2.10;;;13.00;99.90;;;;;;5050972;28;20510;-65
2022/11/09 02:48:25;;;;;;;7.07;2.20;;;13.00;99.90;;;;;;5051202;28;20047;-65
2022/11/09 02:50:51;;;;;;;6.10;1.77;;;13.00;99.90;;;;;;5051221;28;20041;-65
2022/11/09 02:53:16;;;;;;;6.43;1.80;;;13.00;99.90;;;;;;5050068;28;20040;-65
2022/11/09 02:55:42;;;;;;;8.93;1.95;;;13.00;99.90;;;;;;5050525;28;20083;-65
2022/11/09 02:58:07;;;;;;;5.60;1.60;;;13.00;99.90;;;;;;5050876;28;20467;-65
2022/11/09 03:00:33;;;;;;;6.85;1.83;;;13.00;99.90;;;;;;5051052;28;20596;-65
2022/11/09 03:02:58;;;;;;;5.13;1.92;;;13.00;99.90;;;;;;5051150;28;20044;-65
2022/11/09 03:05:24;;;;;;;3.72;1.27;;;13.00;99.90;;;;;;5050635;28;20134;-65
2022/11/09 03:07:49;;;;;;;7.60;2.00;;;13.00;99.90;;;;;;5051270;28;20076;-65
2022/11/09 03:10:15;;;;;;;7.65;2.92;;;13.00;99.90;;;;;;5050625;28;20116;-65
2022/11/09 03:12:41;;;;;;;4.88;1.65;;;12.90;99.90;;;;;;5051074;28;20048;-65
2022/11/09 03:15:07;;;;;;;7.63;2.03;;;12.90;99.90;;;;;;5050593;28;20041;-65
2022/11/09 03:17:34;;;;;;;8.63;1.83;;;12.90;99.90;;;;;;5051004;28;20083;-65
2022/11/09 03:20:00;;;;;;;11.30;1.80;;;12.90;99.90;;;;;;5050884;28;20033;-65
2022/11/09 03:22:26;;;;;;;5.30;1.60;;;12.90;99.90;;;;;;5050944;28;20056;-65
2022/11/09 03:24:51;;;;;;;6.22;1.92;;;12.90;99.90;;;;;;5050418;28;20124;-65
2022/11/09 03:27:17;;;;;;;6.25;1.90;;;12.90;99.90;;;;;;5050852;28;20462;-65
2022/11/09 03:29:42;;;;;;;6.15;1.73;;;12.80;99.90;;;;;;5050689;28;20114;-65
2022/11/09 03:32:08;;;;;;;7.20;1.98;;;12.80;99.90;;;;;;5050798;28;20051;-65
2022/11/09 03:34:34;;;;;;;9.02;1.50;;;12.80;99.90;;;;;;5050569;28;20067;-65
2022/11/09 03:36:59;;;;;;;4.68;1.77;;;12.80;99.90;;;;;;5049160;28;20045;-65
2022/11/09 03:39:25;;;;;;;2.83;1.73;;;12.80;99.90;;;;;;5050629;28;20393;-65
2022/11/09 03:41:50;;;;;;;9.32;1.92;;;12.70;99.90;;;;;;5050609;28;20044;-65
2022/11/09 03:44:16;;;;;;;4.60;2.33;;;12.70;99.90;;;;;;5050192;28;20041;-65
2022/11/09 03:46:41;;;;;;;6.22;2.22;;;12.70;99.90;;;;;;5050512;28;20455;-65
2022/11/09 03:49:07;;;;;;;8.07;1.80;;;12.70;99.90;;;;;;5050425;28;20086;-65
2022/11/09 03:51:32;;;;;;;7.97;1.90;;;12.70;99.90;;;;;;5050381;28;20045;-65
2022/11/09 03:53:58;;;;;;;6.82;2.10;;;12.70;99.90;;;;;;5050359;28;20045;-65
2022/11/09 03:56:24;;;;;;;8.95;2.25;;;12.70;99.90;;;;;;5050302;28;20045;-65
2022/11/09 03:58:49;;;;;;;9.32;2.10;;;12.70;99.90;;;;;;5050308;28;20037;-65
2022/11/09 04:01:15;;;;;;;4.72;1.98;;;12.70;99.90;;;;;;5050548;28;20445;-65
2022/11/09 04:03:40;;;;;;;2.00;1.50;;;12.70;99.90;;;;;;5050324;28;20366;-65
2022/11/09 04:06:06;;;;;;;9.77;1.90;;;12.70;99.90;;;;;;5050313;28;20424;-65
2022/11/09 04:08:32;;;;;;;5.60;1.88;;;12.70;99.90;;;;;;5052852;28;20045;-65
2022/11/09 04:10:57;;;;;;;4.88;1.90;;;12.60;99.90;;;;;;5053694;28;20517;-65
2022/11/09 04:13:23;;;;;;;3.40;1.80;;;12.70;99.90;;;;;;5053271;28;20052;-65
2022/11/09 04:15:48;;;;;;;6.30;1.80;;;12.70;99.90;;;;;;5053706;28;20091;-65
2022/11/09 04:18:15;;;;;;;6.50;2.53;;;12.70;99.90;;;;;;5052988;28;20115;-65
2022/11/09 04:20:42;;;;;;;6.50;2.35;;;12.70;99.90;;;;;;5052427;28;20041;-65
2022/11/09 04:23:11;;;;;;;5.07;3.25;;;12.70;99.90;;;;;;5053751;28;20394;-65
2022/11/09 04:25:38;;;;;;;4.28;2.00;;;12.70;99.90;;;;;;5053720;28;20044;-65
2022/11/09 04:28:05;;;;;;;5.13;1.98;;;12.80;99.90;;;;;;5053639;28;20041;-65
2022/11/09 04:30:33;;;;;;;4.47;1.98;;;12.80;99.90;;;;;;5053646;28;20098;-65
2022/11/09 04:32:59;;;;;;;8.80;1.83;;;12.80;99.90;;;;;;5053827;28;20068;-65
2022/11/09 04:35:26;;;;;;;2.88;2.38;;;12.80;99.90;;;;;;5053307;28;20049;-65
2022/11/09 04:37:57;;;;;;;5.47;2.03;;;12.80;99.90;;;;;;5053636;28;20041;-65
2022/11/09 04:40:24;;;;;;;6.15;2.22;;;12.80;99.90;;;;;;5053545;28;20397;-65
2022/11/09 04:42:50;;;;;;;7.95;1.98;;;12.80;99.90;;;;;;5053291;28;20052;-65
2022/11/09 04:45:16;;;;;;;7.45;2.42;;;12.80;99.90;;;;;;5053418;28;20040;-65
2022/11/09 04:47:42;;;;;;;6.07;2.00;;;12.70;99.90;;;;;;5053323;28;20059;-65
2022/11/09 04:50:08;;;;;;;9.32;2.17;;;12.80;99.90;;;;;;5052275;28;20045;-65
2022/11/09 04:52:33;;;;;;;5.93;1.73;;;12.70;99.90;;;;;;5053403;28;20043;-65
2022/11/09 04:54:59;;;;;;;5.60;1.80;;;12.70;99.90;;;;;;5052906;28;20098;-65
2022/11/09 04:57:24;;;;;;;4.93;2.10;;;12.70;99.90;;;;;;5053285;28;20045;-65
2022/11/09 04:59:50;;;;;;;9.93;2.20;;;12.70;99.90;;;;;;5052793;28;20037;-65
2022/11/09 05:02:15;;;;;;;5.72;1.77;;;12.70;99.90;;;;;;5052138;28;20069;-65
2022/11/09 05:04:41;;;;;;;3.40;1.75;;;12.70;99.90;;;;;;5051640;28;20044;-65
2022/11/09 05:07:06;;;;;;;6.45;2.10;;;12.70;99.90;;;;;;5053141;28;20048;-65
2022/11/09 05:09:32;;;;;;;5.25;1.90;;;12.70;99.90;;;;;;5053132;28;20049;-65
2022/11/09 05:11:57;;;;;;;6.57;1.80;;;12.70;99.90;;;;;;5053038;28;20041;-65
2022/11/09 05:14:23;;;;;;;6.63;2.00;;;12.70;99.90;;;;;;5052904;28;20051;-65
2022/11/09 05:16:48;;;;;;;3.08;1.63;;;12.70;99.90;;;;;;5052825;28;20098;-65
2022/11/09 05:19:14;;;;;;;4.50;1.80;;;12.70;99.90;;;;;;5052396;28;20128;-65
2022/11/09 05:21:39;;;;;;;5.47;1.65;;;12.70;99.90;;;;;;5052646;28;20072;-65
2022/11/09 05:24:05;;;;;;;5.82;1.75;;;12.70;99.90;;;;;;5052534;28;20056;-65
2022/11/09 05:26:38;;;;;;;3.63;1.85;;;12.70;99.90;;;;;;5052822;28;20504;-65
2022/11/09 05:29:05;;;;;;;;;;;12.70;99.90;;;;;;5051831;28;20080;-65
2022/11/09 05:31:31;;;;;;;6.70;2.10;;;12.70;99.90;;;;;;5052461;28;19916;-65
2022/11/09 05:33:58;;;;;;;4.68;1.65;;;12.60;99.90;;;;;;5052472;28;20086;-65
2022/11/09 05:36:24;;;;;;;6.45;1.75;;;12.60;99.90;;;;;;5052575;28;20110;-65
2022/11/09 05:38:50;;;;;;;6.88;1.80;;;12.60;99.90;;;;;;5052428;28;20116;-65
2022/11/09 05:41:16;;;;;;;4.35;1.80;;;12.60;99.90;;;;;;5052563;28;20041;-65
2022/11/09 05:43:43;;;;;;;6.50;1.75;;;12.60;99.90;;;;;;5052326;28;20063;-65
2022/11/09 05:46:09;;;;;;;10.00;2.42;;;12.60;99.90;;;;;;5052447;28;20456;-65
2022/11/09 05:48:35;;;;;;;4.35;1.77;;;12.60;99.90;;;;;;5052292;28;20099;-65
2022/11/09 05:51:03;;;;;;;2.97;1.55;;;12.60;99.90;;;;;;5052154;28;20072;-65
2022/11/09 05:53:29;;;;;;;3.13;1.52;;;12.60;99.90;;;;;;5051005;28;20752;-65
2022/11/09 05:55:55;;;;;;;6.72;1.90;;;12.60;99.90;;;;;;5052120;28;20382;-65
2022/11/09 05:58:21;;;;;;;2.75;1.70;;;12.60;99.90;;;;;;5052157;28;20040;-65
2022/11/09 06:00:46;;;;;;;6.53;1.67;;;12.50;99.90;;;;;;5051921;28;20037;-65
2022/11/09 06:03:12;;;;;;;1.75;1.27;;;12.50;99.90;;;;;;5052143;28;20052;-65
2022/11/09 06:05:39;;;;;;;10.70;1.75;;;12.50;99.90;;;;;;5051587;28;20041;-65
2022/11/09 06:08:07;;;;;;;3.15;1.70;;;12.50;99.90;;;;;;5051791;28;20048;-65
2022/11/09 06:10:33;;;;;;;7.32;1.80;;;12.50;99.90;;;;;;5051961;28;20044;-65
2022/11/09 06:12:59;;;;;;;7.07;2.17;;;12.50;99.90;;;;;;5051739;28;20493;-65
2022/11/09 06:15:24;;;;;;;5.18;1.88;;;12.50;99.90;;;;;;5051213;28;20045;-65
2022/11/09 06:17:54;;;;;;;9.80;1.80;;;12.40;99.90;;;;;;5052049;28;20037;-65
2022/11/09 06:20:21;;;;;;;9.15;1.95;;;12.40;99.90;;;;;;5051485;28;20033;-65
2022/11/09 06:22:54;;;;;;;7.72;1.80;;;12.40;99.90;;;;;;5051756;28;20037;-65
2022/11/09 06:25:20;;;;;;;4.75;1.60;;;12.40;99.90;;;;;;5051366;28;20040;-65
2022/11/09 06:27:46;;;;;;;9.00;1.88;;;12.40;99.90;;;;;;5051575;28;20036;-65
2022/11/09 06:30:12;;;;;;;8.52;1.70;;;12.40;99.90;;;;;;5051515;28;20048;-65
2022/11/09 06:32:37;;;;;;;8.45;2.13;;;12.40;99.90;;;;;;5050937;28;20496;-65
2022/11/09 06:35:03;;;;;;;7.60;1.85;;;12.40;99.90;;;;;;5051066;28;20045;-65
2022/11/09 06:37:29;;;;;;;9.32;2.05;;;12.40;99.90;;;;;;5051322;28;20418;-65
2022/11/09 06:39:54;;;;;;;8.45;1.63;;;12.40;99.90;;;;;;5050340;28;20037;-65
2022/11/09 06:42:20;;;;;;;7.05;1.60;;;12.30;99.90;;;;;;5048169;28;20041;-65
2022/11/09 06:44:45;;;;;;;7.03;2.17;;;12.30;99.90;;;;;;5048439;28;20398;-65
2022/11/09 06:47:10;;;;;;;8.30;1.85;;;12.20;99.90;;;;;;5049820;28;20531;-65
2022/11/09 06:49:36;;;;;;;9.10;2.13;;;12.20;99.90;;;;;;5051023;28;20041;-65
2022/11/09 06:52:02;;;;;;;6.50;2.05;;;12.20;99.90;;;;;;5049345;28;20043;-65
2022/11/09 06:54:27;;;;;;;10.05;1.83;;;12.20;99.90;;;;;;5049801;28;20120;-65
2022/11/09 06:56:54;;;;;;;4.07;1.75;;;12.20;99.90;;;;;;5050063;28;20087;-65
2022/11/09 06:59:19;;;;;;;7.22;1.98;;;12.20;99.90;;;;;;5050843;28;20055;-65
2022/11/09 07:01:45;;;;;;;8.65;2.92;;;12.20;99.90;;;;;;5051214;28;20114;-65
2022/11/09 07:04:13;;;;;;;6.35;1.98;;;12.20;99.90;;;;;;5050947;28;20063;-65
2022/11/09 07:06:40;;;;;;;5.47;1.65;;;12.10;99.90;;;;;;5050877;28;20504;-65
2022/11/09 07:09:05;;;;;;;6.43;1.90;;;12.10;99.90;;;;;;5051241;28;20393;-65
2022/11/09 07:11:31;;;;;;;8.50;1.77;;;12.10;99.90;;;;;;5050846;28;20120;-65
2022/11/09 07:13:56;;;;;;;9.63;1.85;;;12.10;99.90;;;;;;5050700;28;20104;-65
2022/11/09 07:16:22;;;;;;;8.15;2.08;;;12.10;99.90;;;;;;5050702;28;20433;-65
2022/11/09 07:18:47;;;;;;;6.93;1.92;;;12.10;99.90;;;;;;5050824;28;20578;-65
2022/11/09 07:21:13;;;;;;;5.22;2.00;;;12.10;99.90;;;;;;5049651;28;20588;-65
2022/11/09 07:23:39;;;;;;;12.80;2.05;;;12.10;99.90;;;;;;5051050;28;20044;-65
2022/11/09 07:26:05;;;;;;;9.25;2.00;;;12.10;99.90;;;;;;5050681;28;20397;-65
2022/11/09 07:28:30;;;;;;;7.32;1.67;;;12.10;99.90;;;;;;5050869;28;20698;-65
2022/11/09 07:30:57;;;;;;;6.80;1.85;;;12.10;99.90;;;;;;5050755;28;20048;-65
2022/11/09 07:33:23;;;;;;;9.98;2.50;;;12.10;99.90;;;;;;5050625;28;20048;-65
2022/11/09 07:35:49;;;;;;;10.73;1.77;;;12.10;99.90;;;;;;5049045;28;20048;-65
2022/11/09 07:38:15;;;;;;;9.13;1.98;;;12.10;99.90;;;;;;5050709;28;20037;-65
2022/11/09 07:40:42;;;;;;;9.00;1.85;;;12.10;99.90;;;;;;5050469;28;20482;-65
2022/11/09 07:43:10;;;;;;;6.32;2.00;;;12.10;99.90;;;;;;5052602;28;20425;-64
2022/11/09 07:45:36;;;;;;;10.73;2.78;;;12.20;99.90;;;;;;5052963;28;20044;-64
2022/11/09 07:48:04;;;;;;;7.03;1.75;;;12.20;99.90;;;;;;5054496;28;20111;-64
2022/11/09 07:50:31;;;;;;;5.53;1.98;;;12.20;99.90;;;;;;5054703;28;20393;-65
2022/11/09 07:52:58;;;;;;;15.57;2.22;;;12.20;99.90;;;;;;5054715;28;20048;-65
2022/11/09 07:55:25;;;;;;;4.32;1.70;;;12.30;99.90;;;;;;5053681;28;20059;-65
2022/11/09 07:57:58;;;;;;;7.80;2.53;;;12.30;99.90;;;;;;5053691;28;20677;-65
2022/11/09 08:00:25;;;;;;;7.03;1.90;;;12.30;99.90;;;;;;5054434;28;20458;-65
2022/11/09 08:02:51;;;;;;;10.13;1.63;;;12.30;99.90;;;;;;5054590;28;20029;-65
2022/11/09 08:05:17;;;;;;;5.72;1.77;;;12.30;99.90;;;;;;5053702;28;20444;-65
2022/11/09 08:07:43;;;;;;;7.63;1.70;;;12.30;99.90;;;;;;5054396;28;20041;-65
2022/11/09 08:10:09;;;;;;;9.82;2.05;;;12.30;99.90;;;;;;5053903;28;20048;-65
2022/11/09 08:12:34;;;;;;;9.32;2.28;;;12.40;99.90;;;;;;5054182;28;20118;-65
2022/11/09 08:15:00;;;;;;;6.53;1.85;;;12.40;99.90;;;;;;5053884;28;20080;-65
2022/11/09 08:17:25;;;;;;;4.28;2.00;;;12.40;99.90;;;;;;5053805;28;20067;-65
2022/11/09 08:19:51;;;;;;;7.43;2.25;;;12.40;99.90;;;;;;5053746;28;20116;-65
2022/11/09 08:22:16;;;;;;;9.30;1.90;;;12.40;99.90;;;;;;5054030;28;20115;-65
2022/11/09 08:24:42;;;;;;;9.85;2.10;;;12.40;99.90;;;;;;5053834;28;20119;-65
2022/11/09 08:27:07;;;;;;;7.30;1.98;;;12.40;99.90;;;;;;5054019;28;20136;-68
2022/11/09 08:29:33;;;;;;;10.73;2.05;;;12.50;99.90;;;;;;5053634;28;20445;-69
2022/11/09 08:31:58;;;;;;;12.52;2.00;;;12.50;99.90;;;;;;5053851;28;20052;-69
2022/11/09 08:34:24;;;;;;;10.88;2.30;;;12.50;99.90;;;;;;5053685;28;20067;-69
2022/11/09 08:36:49;;;;;;;11.52;2.63;;;12.50;99.90;;;;;;5053873;28;20069;-66
2022/11/09 08:39:15;;;;;;;6.38;2.10;;;12.50;99.90;;;;;;5052263;28;20087;-65
2022/11/09 08:41:41;;;;;;;8.77;1.98;;;12.60;99.90;;;;;;5052090;28;20537;-65
2022/11/09 08:44:06;;;;;;;7.55;2.45;;;12.60;99.90;;;;;;5052818;28;20040;-65
2022/11/09 08:46:32;;;;;;;16.80;2.40;;;12.60;99.90;;;;;;5053326;28;20072;-66
2022/11/09 08:48:57;;;;;;;10.85;2.50;;;12.60;99.90;;;;;;5053234;28;20036;-66
2022/11/09 08:51:23;;;;;;;10.70;2.58;;;12.60;99.90;;;;;;5052878;28;20044;-66
2022/11/09 08:53:49;;;;;;;6.35;2.15;;;12.60;99.90;;;;;;5052040;28;20037;-65
2022/11/09 08:56:17;;;;;;;10.45;2.45;;;12.60;99.90;;;;;;5052580;28;20517;-65
2022/11/09 08:58:44;;;;;;;12.68;2.22;;;12.70;99.90;;;;;;5053288;28;20037;-69
2022/11/09 09:01:10;;;;;;;7.07;1.88;;;12.70;99.90;;;;;;5052266;28;20436;-67
2022/11/09 09:03:36;;;;;;;10.40;2.67;;;12.70;99.90;;;;;;5052102;28;20524;-69
2022/11/09 09:06:03;;;;;;;7.90;2.05;;;12.70;99.90;;;;;;5052529;28;20083;-68
2022/11/09 09:08:29;;;;;;;6.78;1.73;;;12.70;99.90;;;;;;5053324;28;20056;-67
2022/11/09 09:10:54;;;;;;;5.57;1.90;;;12.80;99.90;;;;;;5053166;28;20412;-65
2022/11/09 09:13:21;;;;;;;7.88;2.53;;;12.80;99.90;;;;;;5052763;28;20076;-65
2022/11/09 09:15:47;;;;;;;6.35;1.77;;;12.80;99.90;;;;;;5052567;28;20048;-65
2022/11/09 09:18:13;;;;;;;8.90;2.08;;;12.80;99.90;;;;;;5052797;28;20037;-65
2022/11/09 09:20:39;;;;;;;7.97;2.33;;;12.90;99.90;;;;;;5052741;28;20037;-65
2022/11/09 09:23:04;;;;;;;10.75;2.13;;;12.90;99.90;;;;;;5052909;28;20087;-65
2022/11/09 09:25:30;;;;;;;13.57;2.33;;;12.90;99.90;;;;;;5052700;28;20048;-65
2022/11/09 09:27:55;;;;;;;6.85;1.90;;;12.90;99.90;;;;;;5052628;28;20381;-65
2022/11/09 09:30:21;;;;;;;7.38;2.00;;;13.00;99.90;;;;;;5052679;28;20041;-65
2022/11/09 09:32:47;;;;;;;7.13;2.33;;;13.00;99.90;;;;;;5052791;28;20033;-66
2022/11/09 09:35:13;;;;;;;10.73;1.80;;;13.10;99.90;;;;;;5052365;28;20045;-65
2022/11/09 09:37:38;;;;;;;9.75;2.80;;;13.10;99.90;;;;;;5052606;28;20043;-66
2022/11/09 09:40:04;;;;;;;12.18;2.22;;;13.10;99.90;;;;;;5052549;28;20037;-65
2022/11/09 09:42:42;;;;;;;6.80;2.50;;;13.10;99.90;;;;;;5052519;28;20041;-65
2022/11/09 09:45:18;;;;;;;6.93;1.92;;;13.10;99.90;;;;;;5052276;28;20033;-65
2022/11/09 09:47:58;;;;;;;8.70;2.65;;;13.10;99.90;;;;;;5052756;28;20037;-65
2022/11/09 09:50:27;;;;;;;14.07;2.17;;;13.20;99.90;;;;;;5052536;28;20044;-65
2022/11/09 09:53:29;;;;;;;6.20;2.20;;;13.20;99.90;;;;;;5052342;28;20111;-65
2022/11/09 09:56:08;;;;;;;13.32;2.33;;;13.20;99.90;;;;;;5043368;28;20096;-65
2022/11/09 09:58:36;;;;;;;13.55;2.33;;;13.20;99.90;;;;;;5052293;28;20387;-65
2022/11/09 10:01:18;;;;;;;5.75;2.13;;;13.30;99.90;;;;;;5052189;28;20032;-65
2022/11/09 10:03:45;;;;;;;14.80;2.75;;;13.30;99.90;;;;;;5052121;28;20405;-68
2022/11/09 10:06:30;;;;;;;6.85;2.60;;;13.30;99.90;;;;;;5051655;28;20036;-65
2022/11/09 10:09:10;;;;;;;3.70;2.38;;;13.30;99.90;;;;;;5051829;28;20460;-66
2022/11/09 10:12:13;;;;;;;8.05;2.33;;;13.30;99.90;;;;;;5051908;28;20406;-66
2022/11/09 10:15:14;;;;;;;13.15;2.75;;;13.40;99.90;;;;;;5028531;28;20098;-65
2022/11/09 10:18:03;;;;;;;9.07;2.22;;;13.50;99.90;;;;;;5051656;28;20564;-66
2022/11/09 10:21:05;;;;;;;9.95;2.10;;;13.50;99.90;;;;;;5044442;28;20059;-70
2022/11/09 10:23:34;;;;;;;5.88;2.05;;;13.50;99.90;;;;;;5048786;28;20041;-70
2022/11/09 10:26:16;;;;;;;8.82;2.42;;;13.50;99.90;;;;;;5050051;28;20052;-70
2022/11/09 10:28:45;;;;;;;11.18;2.47;;;13.50;99.90;;;;;;5050174;28;20067;-69
2022/11/09 10:31:19;;;;;;;7.63;2.30;;;13.70;99.90;;;;;;5051642;28;20068;-68
2022/11/09 10:33:50;;;;;;;9.27;2.03;;;13.60;99.90;;;;;;5049965;28;20143;-69
2022/11/09 10:36:27;;;;;;;4.97;2.20;;;13.60;99.90;;;;;;5050106;28;20067;-68
2022/11/09 10:38:57;;;;;;;11.65;2.03;;;13.60;99.90;;;;;;5050114;28;20397;-68
2022/11/09 10:41:36;;;;;;;12.60;2.20;;;13.60;99.90;;;;;;5050889;28;20513;-68
2022/11/09 10:44:02;;;;;;;4.72;1.80;;;13.60;99.90;;;;;;5051215;28;20047;-68
2022/11/09 10:46:27;;;;;;;8.55;2.15;;;13.60;99.90;;;;;;5051189;28;20048;-68
2022/11/09 10:48:54;;;;;;;9.65;2.22;;;13.70;99.90;;;;;;5051395;28;20434;-69
2022/11/09 10:51:45;;;;;;;10.50;2.97;;;13.60;99.90;;;;;;5049731;28;20045;-69
2022/11/09 10:54:18;;;;;;;7.28;2.60;;;13.60;99.90;;;;;;5050919;28;20075;-68
2022/11/09 10:56:57;;;;;;;8.02;2.30;;;13.70;99.90;;;;;;5051191;28;20041;-69
2022/11/09 10:59:48;;;;;;;8.38;1.88;;;13.70;99.90;;;;;;5049879;28;20401;-69
2022/11/09 11:02:25;;;;;;;11.20;2.33;;;13.70;99.90;;;;;;5050940;28;20037;-65
2022/11/09 11:05:17;;;;;;;11.48;2.22;;;13.90;99.90;;;;;;5050983;28;20114;-68
2022/11/09 11:07:43;;;;;;;6.68;2.38;;;13.80;99.90;;;;;;5050679;28;20410;-66
2022/11/09 11:10:15;;;;;;;10.93;2.35;;;13.80;99.90;;;;;;5050768;28;20052;-65
2022/11/09 11:12:41;;;;;;;5.82;1.63;;;13.80;99.90;;;;;;5050379;28;20045;-66
2022/11/09 11:15:36;;;;;;;5.25;1.88;;;13.90;99.90;;;;;;5050749;28;20040;-66
2022/11/09 11:18:04;;;;;;;2.90;1.50;;;13.90;99.90;;;;;;5044986;28;20049;-69
2022/11/09 11:20:35;;;;;;;5.40;1.92;;;13.90;99.90;;;;;;5049413;28;20129;-65
2022/11/09 11:23:22;;;;;;;5.03;1.83;;;13.90;99.90;;;;;;5049537;28;20036;-65
2022/11/09 11:25:54;;;;;;;6.00;1.63;;;13.90;99.90;;;;;;5048405;28;20041;-65
2022/11/09 11:28:28;;;;;;;5.97;1.90;;;13.90;99.90;;;;;;5050751;28;20071;-66
2022/11/09 11:30:54;;;;;;;9.65;1.98;;;13.90;99.90;;;;;;5050305;28;20072;-65
2022/11/09 11:33:20;;;;;;;9.85;1.45;;;13.90;99.90;;;;;;5050294;28;20041;-65
2022/11/09 11:36:05;;;;;;;11.07;1.70;;;13.90;99.90;;;;;;5049088;28;20456;-65
2022/11/09 11:38:39;;;;;;;8.85;1.60;;;13.80;99.90;;;;;;5041996;28;20045;-65
2022/11/09 11:41:10;;;;;;;7.13;2.15;;;13.80;99.90;;;;;;5049804;28;20052;-65
2022/11/09 11:43:47;;;;;;;7.50;2.15;;;13.80;99.90;;;;;;5050532;28;20048;-66
2022/11/09 11:46:31;;;;;;;6.07;2.20;;;13.80;99.90;;;;;;5045509;28;20045;-68
2022/11/09 11:49:27;;;;;;;5.07;2.00;;;13.80;99.90;;;;;;5050399;28;20045;-65
2022/11/09 11:52:16;;;;;;;8.15;1.77;;;13.80;99.90;;;;;;5050737;28;20045;-65
2022/11/09 11:55:07;;;;;;;15.60;2.70;;;13.80;99.90;;;;;;5050358;28;20052;-65
2022/11/09 11:57:55;;;;;;;10.70;2.17;;;13.80;99.90;;;;;;5050647;28;20052;-65
2022/11/09 12:00:21;;;;;;;9.13;2.75;;;13.80;99.90;;;;;;5050084;28;20566;-65
2022/11/09 12:03:01;;;;;;;12.02;2.00;;;13.70;99.90;;;;;;5050290;28;20367;-65
2022/11/09 12:05:51;;;;;;;9.40;1.60;;;13.70;99.90;;;;;;5050321;28;20405;-65
2022/11/09 12:08:24;;;;;;;5.95;1.88;;;13.70;99.90;;;;;;5050342;28;20033;-65
2022/11/09 12:11:11;;;;;;;11.50;2.10;;;13.70;99.90;;;;;;5050260;28;20478;-65
2022/11/09 12:14:10;;;;;;;5.40;1.27;;;13.70;99.90;;;;;;5050374;28;20052;-65
2022/11/09 12:16:57;;;;;;;10.43;1.88;;;13.70;99.90;;;;;;5050373;28;20045;-65
2022/11/09 12:19:44;;;;;;;6.32;1.90;;;13.70;99.90;;;;;;5050128;28;20409;-65
2022/11/09 12:22:21;;;;;;;12.40;1.55;;;13.70;99.90;;;;;;5050386;28;20041;-65
2022/11/09 12:25:10;;;;;;;8.40;1.70;;;13.70;99.90;;;;;;5049931;28;20045;-65
2022/11/09 12:27:49;;;;;;;7.90;1.65;;;13.80;99.90;;;;;;5050532;28;20060;-65
2022/11/09 12:30:20;;;;;;;6.07;1.92;;;13.80;99.90;;;;;;5053599;28;20045;-65
2022/11/09 12:33:20;;;;;;;7.22;1.80;;;13.80;99.90;;;;;;5053977;28;20052;-65
2022/11/09 12:35:58;;;;;;;4.05;1.70;;;13.90;99.90;;;;;;5036885;28;20072;-65
2022/11/09 12:38:35;;;;;;;5.55;1.77;;;13.90;99.90;;;;;;5053610;28;20076;-65
2022/11/09 12:41:19;;;;;;;10.18;2.50;;;14.00;99.90;;;;;;5053697;28;20432;-65
2022/11/09 12:44:08;;;;;;;9.10;2.03;;;14.00;99.90;;;;;;5053376;28;20040;-65
2022/11/09 12:46:38;;;;;;;7.93;1.50;;;14.00;99.90;;;;;;5053422;28;20033;-65
2022/11/09 12:49:04;;;;;;;8.73;2.00;;;14.00;99.90;;;;;;5053023;28;20048;-65
2022/11/09 12:51:32;;;;;;;7.70;1.88;;;14.00;99.90;;;;;;5053529;28;20045;-65
2022/11/09 12:54:01;;;;;;;7.03;1.55;;;13.90;99.90;;;;;;5051941;28;20468;-65
2022/11/09 12:56:34;;;;;;;2.72;1.45;;;13.90;99.90;;;;;;5053449;28;20454;-65